Time;durP1;ratioP1;P1;durP2;ratioP2;P2;SDS_P1;SDS_P2;PMS_P1;PMS_P2;Temp;Humidity;BMP_temperature;BMP_pressure;BME280_temperature;BME280_humidity;BME280_pressure;Samples;Min_cycle;Max_cycle;Signal;HPM_P1;HPM_P2
2021/12/07 00:00:52;;;;;;;39.65;29.67;;;0.60;98.30;;;;;;4186416;28;20218;-80
2021/12/07 00:02:56;;;;;;;40.63;30.80;;;0.70;98.30;;;;;;4188673;28;21060;-79
2021/12/07 00:05:00;;;;;;;40.67;29.67;;;0.70;98.30;;;;;;4183263;28;20222;-79
2021/12/07 00:07:04;;;;;;;44.50;30.80;;;0.70;98.30;;;;;;4183955;28;20232;-79
2021/12/07 00:09:11;;;;;;;45.70;31.60;;;0.70;98.30;;;;;;4187141;28;20214;-79
2021/12/07 00:11:13;;;;;;;43.20;29.17;;;0.80;98.30;;;;;;4183003;28;20198;-79
2021/12/07 00:13:17;;;;;;;41.35;29.40;;;0.90;98.30;;;;;;4183069;28;20249;-79
2021/12/07 00:15:23;;;;;;;42.10;29.35;;;0.90;98.30;;;;;;4183557;28;20213;-79
2021/12/07 00:17:27;;;;;;;42.35;31.42;;;0.80;98.30;;;;;;4183594;28;20214;-79
2021/12/07 00:19:30;;;;;;;43.85;31.38;;;0.70;98.30;;;;;;4183506;28;20650;-79
2021/12/07 00:21:34;;;;;;;42.90;31.10;;;0.80;98.30;;;;;;4179262;28;20202;-79
2021/12/07 00:23:37;;;;;;;41.75;32.80;;;0.80;98.30;;;;;;4179606;28;20229;-79
2021/12/07 00:25:47;;;;;;;43.00;31.50;;;0.80;98.30;;;;;;4176541;28;20256;-79
2021/12/07 00:27:50;;;;;;;42.63;31.23;;;0.70;98.30;;;;;;4183058;28;20210;-79
2021/12/07 00:29:53;;;;;;;46.13;32.85;;;0.80;98.30;;;;;;4183096;28;20206;-79
2021/12/07 00:32:09;;;;;;;45.30;31.70;;;0.80;98.30;;;;;;4178424;28;20225;-79
2021/12/07 00:34:18;;;;;;;45.00;31.85;;;0.70;98.30;;;;;;4172272;28;20215;-80
2021/12/07 00:36:21;;;;;;;43.45;31.08;;;0.70;98.30;;;;;;4178846;28;20206;-79
2021/12/07 00:38:27;;;;;;;47.67;32.80;;;0.80;98.30;;;;;;4183200;28;20206;-79
2021/12/07 00:40:30;;;;;;;47.35;31.35;;;0.80;98.30;;;;;;4183103;28;20256;-79
2021/12/07 00:42:33;;;;;;;43.80;30.85;;;0.70;98.30;;;;;;4175089;28;20287;-79
2021/12/07 00:44:36;;;;;;;46.25;33.95;;;0.80;98.30;;;;;;4181402;28;20295;-79
2021/12/07 00:46:39;;;;;;;43.35;30.27;;;0.90;98.30;;;;;;4183101;28;20272;-80
2021/12/07 00:48:42;;;;;;;45.88;31.23;;;0.80;98.30;;;;;;4182858;28;20210;-80
2021/12/07 00:50:50;;;;;;;43.20;31.02;;;0.70;98.30;;;;;;4183060;28;20206;-79
2021/12/07 00:52:53;;;;;;;44.92;32.22;;;0.70;98.30;;;;;;4182641;28;20230;-80
2021/12/07 00:54:58;;;;;;;50.40;34.30;;;0.80;98.30;;;;;;4182557;28;20206;-80
2021/12/07 00:57:02;;;;;;;51.15;32.20;;;0.80;98.30;;;;;;4183201;28;20673;-80
2021/12/07 00:59:05;;;;;;;45.35;31.58;;;0.70;98.30;;;;;;4178900;28;20269;-79
2021/12/07 01:01:10;;;;;;;44.03;31.90;;;0.70;98.30;;;;;;4177189;28;20268;-79
2021/12/07 01:03:14;;;;;;;49.10;33.67;;;0.70;98.30;;;;;;4182553;28;20288;-79
2021/12/07 01:05:22;;;;;;;45.28;31.83;;;0.60;98.30;;;;;;4182505;28;20226;-79
2021/12/07 01:07:49;;;;;;;43.40;31.90;;;0.60;98.30;;;;;;4182459;28;20211;-79
2021/12/07 01:24:39;;;;;;;46.58;32.97;;;0.70;98.30;;;;;;4181882;28;20218;-80
2021/12/07 01:26:32;;;;;;;50.25;33.50;;;0.60;98.30;;;;;;4184126;28;20206;-79
2021/12/07 01:28:40;;;;;;;48.97;33.65;;;0.60;98.30;;;;;;4181590;28;20249;-79
2021/12/07 01:30:50;;;;;;;51.58;33.80;;;0.60;98.30;;;;;;4177374;28;20255;-79
2021/12/07 01:33:16;;;;;;;52.42;33.35;;;0.60;98.30;;;;;;4180275;28;20252;-79
2021/12/07 01:37:53;;;;;;;50.45;34.20;;;0.60;98.30;;;;;;4163788;28;20730;-79
2021/12/07 01:40:22;;;;;;;45.10;33.38;;;0.50;98.30;;;;;;4182376;28;20206;-79
2021/12/07 01:45:14;;;;;;;46.08;32.85;;;0.60;98.30;;;;;;4177271;28;20210;-79
2021/12/07 01:47:30;;;;;;;50.72;34.65;;;0.60;98.30;;;;;;4183078;28;20214;-79
2021/12/07 01:59:33;;;;;;;49.75;35.80;;;0.40;98.30;;;;;;4179931;28;20263;-79
2021/12/07 02:01:37;;;;;;;50.00;33.83;;;0.50;98.30;;;;;;4179124;28;20695;-79
2021/12/07 02:03:40;;;;;;;52.08;34.85;;;0.50;98.30;;;;;;4175396;28;20233;-79
2021/12/07 02:05:43;;;;;;;49.35;32.85;;;0.60;98.30;;;;;;4182200;28;20698;-79
2021/12/07 02:07:46;;;;;;;48.65;34.15;;;0.50;98.30;;;;;;4181479;28;20212;-79
2021/12/07 02:09:54;;;;;;;47.75;33.50;;;0.60;98.30;;;;;;4183818;28;20519;-79
2021/12/07 02:12:00;;;;;;;49.75;35.50;;;0.60;98.30;;;;;;4182396;28;20575;-79
2021/12/07 02:14:15;;;;;;;50.35;33.80;;;0.60;98.30;;;;;;4178020;28;20322;-80
2021/12/07 02:16:19;;;;;;;49.38;33.65;;;0.60;98.30;;;;;;4180322;28;20202;-79
2021/12/07 02:18:24;;;;;;;44.72;33.50;;;0.50;98.30;;;;;;4182057;28;20219;-79
2021/12/07 02:20:30;;;;;;;50.40;34.13;;;0.50;98.30;;;;;;4182085;28;20491;-79
2021/12/07 02:22:35;;;;;;;52.28;35.05;;;0.60;98.30;;;;;;4176332;28;20233;-79
2021/12/07 02:24:38;;;;;;;50.20;33.70;;;0.50;98.30;;;;;;4181779;28;20217;-79
2021/12/07 02:26:42;;;;;;;47.85;33.65;;;0.50;98.30;;;;;;4185837;28;20234;-79
2021/12/07 02:28:45;;;;;;;51.33;34.50;;;0.60;98.30;;;;;;4189806;28;20210;-79
2021/12/07 02:30:48;;;;;;;46.47;32.88;;;0.50;98.30;;;;;;4192881;28;20208;-79
2021/12/07 02:32:53;;;;;;;50.25;34.50;;;0.50;98.30;;;;;;4190946;28;20222;-78
2021/12/07 02:34:58;;;;;;;46.70;33.92;;;0.50;98.30;;;;;;4193863;28;20202;-79
2021/12/07 02:37:01;;;;;;;47.85;32.17;;;0.50;98.30;;;;;;4178231;28;20233;-79
2021/12/07 02:39:07;;;;;;;48.08;34.92;;;0.60;98.30;;;;;;4182461;28;20218;-79
2021/12/07 02:41:11;;;;;;;54.10;36.17;;;0.70;98.30;;;;;;4183091;28;20832;-79
2021/12/07 02:43:14;;;;;;;49.70;34.60;;;0.60;98.30;;;;;;4182020;28;20252;-79
2021/12/07 02:45:18;;;;;;;54.10;34.00;;;0.60;98.30;;;;;;4185236;28;20267;-79
2021/12/07 02:47:21;;;;;;;48.70;32.70;;;0.70;98.30;;;;;;4182429;28;20202;-79
2021/12/07 02:49:24;;;;;;;52.88;35.72;;;0.60;98.30;;;;;;4188886;28;20206;-79
2021/12/07 02:51:27;;;;;;;46.88;34.58;;;0.70;98.30;;;;;;4193898;28;20209;-79
2021/12/07 02:53:31;;;;;;;50.25;35.20;;;0.60;98.30;;;;;;4191026;28;20233;-78
2021/12/07 02:55:36;;;;;;;50.17;34.60;;;0.50;98.30;;;;;;4193382;28;20229;-79
2021/12/07 02:57:42;;;;;;;54.45;37.05;;;0.60;98.30;;;;;;4193608;28;20680;-79
2021/12/07 02:59:49;;;;;;;51.28;34.60;;;0.50;98.30;;;;;;4186865;28;20209;-79
2021/12/07 03:01:59;;;;;;;46.35;33.53;;;0.50;98.30;;;;;;4182345;28;20217;-78
2021/12/07 03:04:07;;;;;;;53.95;32.90;;;0.60;98.30;;;;;;4181812;28;20236;-78
2021/12/07 03:06:18;;;;;;;49.40;34.33;;;0.50;98.30;;;;;;4181210;28;20229;-77
2021/12/07 03:27:08;;;;;;;51.42;36.35;;;0.60;98.30;;;;;;4182342;28;20229;-77
2021/12/07 03:29:11;;;;;;;57.53;35.63;;;0.60;98.30;;;;;;4186490;28;20733;-78
2021/12/07 03:31:15;;;;;;;54.20;36.45;;;0.60;98.30;;;;;;4183152;28;20213;-78
2021/12/07 03:33:18;;;;;;;49.67;34.63;;;0.50;98.30;;;;;;4182566;28;20866;-77
2021/12/07 03:35:21;;;;;;;46.50;33.60;;;0.60;98.30;;;;;;4183587;28;20678;-78
2021/12/07 03:37:24;;;;;;;48.88;34.88;;;0.60;98.30;;;;;;4187275;28;20334;-77
2021/12/07 03:39:27;;;;;;;54.92;36.08;;;0.60;98.30;;;;;;4185927;28;20214;-78
2021/12/07 03:41:30;;;;;;;48.63;35.00;;;0.60;98.30;;;;;;4180682;28;20218;-77
2021/12/07 03:43:34;;;;;;;50.63;35.10;;;0.80;98.30;;;;;;4175080;28;20227;-78
2021/12/07 03:45:38;;;;;;;50.90;34.63;;;0.70;98.30;;;;;;4180827;28;20210;-78
2021/12/07 03:47:41;;;;;;;50.88;33.88;;;0.70;98.30;;;;;;4181348;28;20249;-78
2021/12/07 03:49:44;;;;;;;51.38;36.55;;;0.70;98.30;;;;;;4180299;28;20218;-77
2021/12/07 03:51:47;;;;;;;56.13;33.58;;;0.60;98.30;;;;;;4181190;28;20214;-78
2021/12/07 03:53:50;;;;;;;51.17;36.17;;;0.60;98.30;;;;;;4179728;28;20682;-78
2021/12/07 03:55:53;;;;;;;49.97;33.42;;;0.60;98.30;;;;;;4180500;28;20215;-78
2021/12/07 03:57:56;;;;;;;49.42;35.08;;;0.60;98.30;;;;;;4181301;28;20198;-77
2021/12/07 04:00:01;;;;;;;46.50;33.75;;;0.60;98.30;;;;;;4177874;28;20214;-78
2021/12/07 04:02:04;;;;;;;51.05;35.85;;;0.60;98.30;;;;;;4183344;28;20221;-78
2021/12/07 04:04:07;;;;;;;51.75;35.97;;;0.60;98.30;;;;;;4188289;28;20208;-78
2021/12/07 04:06:10;;;;;;;52.67;36.40;;;0.70;98.30;;;;;;4183797;28;20206;-77
2021/12/07 04:08:14;;;;;;;53.20;36.75;;;0.80;98.30;;;;;;4181111;28;20226;-78
2021/12/07 04:10:19;;;;;;;54.63;35.90;;;0.70;98.30;;;;;;4183756;28;20279;-78
2021/12/07 04:12:22;;;;;;;52.83;35.45;;;0.80;98.30;;;;;;4182748;28;20226;-78
2021/12/07 04:14:25;;;;;;;53.20;33.92;;;0.80;98.30;;;;;;4182605;28;20228;-78
2021/12/07 04:16:29;;;;;;;53.67;36.00;;;0.70;98.30;;;;;;4182916;28;20210;-78
2021/12/07 04:18:32;;;;;;;53.70;36.28;;;0.70;98.30;;;;;;4180877;28;20225;-78
2021/12/07 04:20:36;;;;;;;52.58;34.28;;;0.70;98.30;;;;;;4183287;28;20202;-78
2021/12/07 04:22:39;;;;;;;53.85;36.72;;;0.70;98.30;;;;;;4182581;28;20244;-78
2021/12/07 04:24:41;;;;;;;70.35;46.95;;;0.80;98.30;;;;;;4183500;28;20210;-78
2021/12/07 04:26:44;;;;;;;55.05;37.03;;;0.80;98.30;;;;;;4184219;28;20234;-77
2021/12/07 04:28:47;;;;;;;53.17;35.40;;;0.90;98.30;;;;;;4181045;28;20229;-77
2021/12/07 04:30:50;;;;;;;55.08;35.70;;;0.80;98.30;;;;;;4185163;28;20217;-78
2021/12/07 04:32:55;;;;;;;51.03;35.15;;;0.70;98.30;;;;;;4179138;28;20226;-78
2021/12/07 04:34:58;;;;;;;54.30;36.42;;;0.80;98.30;;;;;;4179704;28;20202;-78
2021/12/07 04:37:01;;;;;;;56.58;36.10;;;0.80;98.30;;;;;;4179339;28;20646;-78
2021/12/07 04:39:04;;;;;;;48.47;35.17;;;0.90;98.30;;;;;;4183986;28;20222;-78
2021/12/07 04:41:07;;;;;;;47.65;33.42;;;0.80;98.30;;;;;;4183766;28;20210;-78
2021/12/07 04:43:11;;;;;;;53.13;34.55;;;0.70;98.30;;;;;;4188408;28;20260;-78
2021/12/07 04:45:25;;;;;;;47.75;34.17;;;0.70;98.30;;;;;;4190649;28;20240;-78
2021/12/07 04:47:36;;;;;;;57.08;35.38;;;0.70;98.30;;;;;;4182133;28;20227;-78
2021/12/07 04:59:03;;;;;;;51.80;36.30;;;0.70;98.30;;;;;;4181561;28;20271;-78
2021/12/07 05:01:10;;;;;;;56.95;35.58;;;0.70;98.30;;;;;;4182524;28;20223;-78
2021/12/07 05:03:14;;;;;;;53.00;36.90;;;0.70;98.30;;;;;;4181634;28;20237;-78
2021/12/07 05:05:20;;;;;;;55.58;37.20;;;0.90;98.30;;;;;;4182861;28;20213;-78
2021/12/07 05:07:28;;;;;;;47.40;33.67;;;0.80;98.30;;;;;;4183121;28;20214;-78
2021/12/07 05:10:02;;;;;;;54.15;36.75;;;0.80;98.30;;;;;;4183577;28;20206;-78
2021/12/07 05:12:24;;;;;;;47.42;34.88;;;0.80;98.30;;;;;;4179043;28;20287;-77
2021/12/07 05:14:30;;;;;;;51.75;34.35;;;0.80;98.30;;;;;;4182612;28;20205;-78
2021/12/07 05:16:46;;;;;;;50.53;34.38;;;0.80;98.30;;;;;;4183506;28;20210;-80
2021/12/07 05:19:02;;;;;;;50.63;35.97;;;0.90;98.30;;;;;;4183304;28;20206;-78
2021/12/07 05:37:49;;;;;;;52.97;34.38;;;0.90;98.30;;;;;;4183740;28;20248;-78
2021/12/07 05:39:52;;;;;;;48.15;33.78;;;0.80;98.30;;;;;;4180716;28;20214;-79
2021/12/07 05:41:56;;;;;;;48.88;34.70;;;0.80;98.30;;;;;;4181013;28;20210;-79
2021/12/07 05:43:59;;;;;;;47.47;33.17;;;0.80;98.30;;;;;;4177978;28;20214;-79
2021/12/07 05:46:03;;;;;;;48.47;33.20;;;0.90;98.30;;;;;;4182200;28;20225;-79
2021/12/07 05:48:07;;;;;;;52.03;35.80;;;0.90;98.30;;;;;;4185546;28;20222;-79
2021/12/07 05:50:12;;;;;;;53.22;35.17;;;0.90;98.30;;;;;;4182394;28;20280;-79
2021/12/07 05:52:15;;;;;;;50.05;33.25;;;0.90;98.30;;;;;;4182499;28;20206;-79
2021/12/07 05:54:20;;;;;;;50.58;33.45;;;0.90;98.30;;;;;;4181293;28;20646;-79
2021/12/07 05:56:22;;;;;;;52.85;34.60;;;0.90;98.30;;;;;;4181568;28;20221;-78
2021/12/07 05:58:25;;;;;;;47.72;33.35;;;0.80;98.30;;;;;;4181721;28;20268;-78
2021/12/07 06:00:31;;;;;;;49.50;34.05;;;0.90;98.30;;;;;;4182182;28;20218;-79
2021/12/07 06:02:34;;;;;;;50.83;33.38;;;0.80;98.30;;;;;;4181278;28;20234;-78
2021/12/07 06:04:37;;;;;;;52.72;34.53;;;0.80;98.30;;;;;;4181345;28;20213;-79
2021/12/07 06:06:40;;;;;;;46.22;31.63;;;0.80;98.30;;;;;;4189426;28;20255;-78
2021/12/07 06:08:43;;;;;;;45.97;31.52;;;0.70;98.30;;;;;;4178512;28;20736;-78
2021/12/07 06:10:47;;;;;;;47.22;32.50;;;0.80;98.30;;;;;;4182303;28;20210;-79
2021/12/07 06:12:57;;;;;;;47.00;33.60;;;0.80;98.30;;;;;;4181099;28;20238;-79
2021/12/07 06:15:01;;;;;;;49.50;33.70;;;0.80;98.30;;;;;;4185440;28;20214;-80
2021/12/07 06:17:06;;;;;;;47.20;33.78;;;0.80;98.30;;;;;;4188906;28;20241;-79
2021/12/07 06:19:10;;;;;;;48.25;32.92;;;0.90;98.30;;;;;;4181588;28;20206;-79
2021/12/07 06:21:14;;;;;;;48.55;34.35;;;1.00;98.30;;;;;;4184606;28;20263;-79
2021/12/07 06:23:18;;;;;;;44.42;33.00;;;0.90;98.30;;;;;;4182395;28;20232;-79
2021/12/07 06:25:21;;;;;;;50.33;34.00;;;0.80;98.30;;;;;;4181733;28;20267;-79
2021/12/07 06:27:26;;;;;;;45.42;32.03;;;0.80;98.30;;;;;;4183532;28;20214;-79
2021/12/07 06:29:29;;;;;;;51.72;32.55;;;0.80;98.30;;;;;;4183890;28;20217;-79
2021/12/07 06:31:32;;;;;;;45.10;31.50;;;0.70;98.30;;;;;;4183673;28;20217;-79
2021/12/07 06:33:35;;;;;;;45.30;31.63;;;0.80;98.30;;;;;;4179964;28;20792;-78
2021/12/07 06:35:39;;;;;;;48.50;31.98;;;0.80;98.30;;;;;;4176112;28;20210;-79
2021/12/07 06:37:42;;;;;;;45.47;31.95;;;0.80;98.30;;;;;;4182922;28;20836;-79
2021/12/07 06:39:46;;;;;;;42.78;31.67;;;0.70;98.30;;;;;;4184117;28;20282;-79
2021/12/07 06:41:50;;;;;;;48.75;32.75;;;0.70;98.30;;;;;;4183864;28;20213;-79
2021/12/07 06:43:54;;;;;;;45.75;32.03;;;0.80;98.30;;;;;;4182652;28;20241;-79
2021/12/07 06:45:57;;;;;;;41.25;30.33;;;0.80;98.30;;;;;;4183533;28;20210;-79
2021/12/07 06:48:00;;;;;;;44.35;30.23;;;0.70;98.30;;;;;;4183247;28;20218;-79
2021/12/07 06:50:04;;;;;;;49.47;32.55;;;0.80;98.30;;;;;;4183376;28;20638;-79
2021/12/07 06:52:07;;;;;;;43.80;30.08;;;0.80;98.30;;;;;;4182998;28;20202;-79
2021/12/07 06:54:11;;;;;;;41.53;29.58;;;0.80;98.30;;;;;;4182753;28;20209;-79
2021/12/07 06:56:14;;;;;;;45.95;31.10;;;0.80;98.30;;;;;;4183209;28;20229;-79
2021/12/07 06:58:17;;;;;;;45.50;31.38;;;0.90;98.30;;;;;;4183538;28;20213;-79
2021/12/07 07:00:22;;;;;;;41.15;30.92;;;0.80;98.30;;;;;;4183024;28;20632;-79
2021/12/07 07:02:25;;;;;;;45.15;31.90;;;0.80;98.30;;;;;;4183755;28;20226;-79
2021/12/07 07:04:28;;;;;;;43.63;30.13;;;0.80;98.30;;;;;;4183089;28;20879;-79
2021/12/07 07:06:31;;;;;;;44.10;30.77;;;0.80;98.30;;;;;;4183853;28;20217;-79
2021/12/07 07:08:36;;;;;;;44.88;30.17;;;0.80;98.30;;;;;;4180273;28;20226;-79
2021/12/07 07:10:39;;;;;;;47.45;31.63;;;0.80;98.30;;;;;;4183126;28;20206;-79
2021/12/07 07:12:43;;;;;;;46.97;31.63;;;0.90;98.30;;;;;;4191861;28;20634;-79
2021/12/07 07:14:47;;;;;;;39.03;27.80;;;0.80;98.30;;;;;;4183116;28;20214;-79
2021/12/07 07:16:51;;;;;;;46.05;30.45;;;0.80;98.30;;;;;;4182589;28;20221;-79
2021/12/07 07:18:54;;;;;;;48.17;34.25;;;0.80;98.30;;;;;;4181264;28;20538;-79
2021/12/07 07:20:57;;;;;;;49.30;33.90;;;1.00;98.30;;;;;;4188018;28;20209;-79
2021/12/07 07:23:00;;;;;;;50.50;33.00;;;1.00;98.30;;;;;;4180829;28;20627;-79
2021/12/07 07:25:03;;;;;;;47.67;31.10;;;0.90;98.30;;;;;;4182610;28;20304;-79
2021/12/07 07:27:07;;;;;;;49.25;33.25;;;0.90;98.30;;;;;;4181680;28;20217;-79
2021/12/07 07:29:10;;;;;;;43.33;30.75;;;0.80;98.30;;;;;;4181922;28;20284;-79
2021/12/07 07:31:14;;;;;;;43.13;31.88;;;0.80;98.30;;;;;;4182064;28;20611;-79
2021/12/07 07:33:18;;;;;;;48.72;31.92;;;0.80;98.30;;;;;;4181265;28;20230;-79
2021/12/07 07:35:22;;;;;;;43.20;30.67;;;0.80;98.30;;;;;;4184355;28;20224;-79
2021/12/07 07:37:25;;;;;;;45.85;31.63;;;0.80;98.30;;;;;;4185045;28;20692;-79
2021/12/07 07:39:28;;;;;;;44.83;30.38;;;0.80;98.30;;;;;;4184744;28;20633;-79
2021/12/07 07:41:31;;;;;;;45.17;30.73;;;0.90;98.30;;;;;;4185051;28;20221;-79
2021/12/07 07:43:34;;;;;;;50.10;32.60;;;0.90;98.30;;;;;;4176155;28;20296;-79
2021/12/07 07:45:37;;;;;;;46.60;33.05;;;0.80;98.30;;;;;;4184857;28;20222;-79
2021/12/07 07:47:40;;;;;;;44.42;29.60;;;0.80;98.30;;;;;;4184243;28;20208;-79
2021/12/07 07:49:44;;;;;;;46.15;32.20;;;0.80;98.30;;;;;;4190964;28;20240;-79
2021/12/07 07:51:47;;;;;;;46.42;31.17;;;0.80;98.30;;;;;;4184604;28;20221;-79
2021/12/07 07:53:50;;;;;;;46.08;31.35;;;0.80;98.30;;;;;;4190361;28;20235;-79
2021/12/07 07:55:53;;;;;;;41.45;29.58;;;0.80;98.30;;;;;;4184260;28;20214;-79
2021/12/07 07:57:56;;;;;;;47.33;30.60;;;0.90;98.30;;;;;;4184773;28;20214;-79
2021/12/07 07:59:59;;;;;;;50.47;33.35;;;0.90;98.30;;;;;;4179578;28;20271;-79
2021/12/07 08:02:01;;;;;;;46.13;31.60;;;0.90;98.30;;;;;;4189161;28;20221;-79
2021/12/07 08:04:06;;;;;;;43.63;30.95;;;0.80;98.30;;;;;;4184613;28;20221;-79
2021/12/07 08:06:10;;;;;;;45.85;31.40;;;0.90;98.30;;;;;;4191832;28;20646;-79
2021/12/07 08:08:13;;;;;;;44.08;31.70;;;0.90;98.30;;;;;;4193122;28;20561;-79
2021/12/07 08:10:18;;;;;;;48.33;33.13;;;0.90;98.30;;;;;;4196296;28;20222;-78
2021/12/07 08:12:21;;;;;;;47.10;31.73;;;0.90;98.30;;;;;;4195853;28;20253;-78
2021/12/07 08:14:24;;;;;;;45.28;30.67;;;0.90;98.30;;;;;;4195078;28;20209;-78
2021/12/07 08:16:28;;;;;;;44.15;32.15;;;0.90;98.30;;;;;;4199826;28;20211;-78
2021/12/07 08:18:31;;;;;;;46.40;33.60;;;0.90;98.30;;;;;;4204208;28;20216;-79
2021/12/07 08:20:34;;;;;;;45.67;32.47;;;0.80;98.30;;;;;;4186906;28;20216;-79
2021/12/07 08:22:38;;;;;;;47.00;32.17;;;0.80;98.30;;;;;;4185124;28;20237;-79
2021/12/07 08:24:41;;;;;;;47.63;32.90;;;0.80;98.30;;;;;;4185213;28;20695;-79
2021/12/07 08:26:44;;;;;;;49.58;33.13;;;0.80;98.30;;;;;;4185491;28;20216;-79
2021/12/07 08:28:47;;;;;;;49.45;33.25;;;0.80;98.30;;;;;;4184743;28;20219;-79
2021/12/07 08:30:51;;;;;;;51.75;34.17;;;0.80;98.30;;;;;;4184710;28;20206;-79
2021/12/07 08:32:54;;;;;;;50.22;34.67;;;0.90;98.30;;;;;;4184514;28;20256;-79
2021/12/07 08:34:57;;;;;;;50.35;33.88;;;0.80;98.30;;;;;;4185493;28;20779;-79
2021/12/07 08:37:00;;;;;;;50.38;33.60;;;0.90;98.30;;;;;;4185093;28;20210;-79
2021/12/07 08:39:04;;;;;;;49.17;34.80;;;0.80;98.30;;;;;;4184907;28;20202;-79
2021/12/07 08:41:07;;;;;;;47.05;31.50;;;0.80;98.30;;;;;;4184574;28;20600;-79
2021/12/07 08:43:12;;;;;;;50.35;34.08;;;0.80;98.30;;;;;;4187265;28;20230;-79
2021/12/07 08:45:15;;;;;;;51.88;35.42;;;0.90;98.30;;;;;;4184615;28;20235;-79
2021/12/07 08:47:18;;;;;;;48.00;33.70;;;0.90;98.30;;;;;;4187621;28;20277;-79
2021/12/07 08:49:41;;;;;;;51.83;35.00;;;0.80;98.30;;;;;;4183990;28;20282;-79
2021/12/07 08:51:45;;;;;;;51.22;36.55;;;0.90;98.30;;;;;;4185004;28;20222;-79
2021/12/07 08:53:53;;;;;;;53.30;35.05;;;0.90;98.30;;;;;;4184523;28;20222;-79
2021/12/07 09:00:43;;;;;;;48.58;33.88;;;1.00;98.30;;;;;;4189813;28;20206;-79
2021/12/07 09:02:46;;;;;;;47.17;33.38;;;0.90;98.30;;;;;;4195236;28;20250;-78
2021/12/07 09:04:51;;;;;;;51.22;34.20;;;0.90;98.30;;;;;;4195313;28;20226;-78
2021/12/07 09:06:53;;;;;;;50.10;32.97;;;0.90;98.30;;;;;;4192422;28;20658;-79
2021/12/07 09:08:57;;;;;;;51.67;33.88;;;1.00;98.30;;;;;;4182680;28;20210;-79
2021/12/07 09:11:01;;;;;;;55.47;36.50;;;0.90;98.30;;;;;;4185037;28;20206;-79
2021/12/07 09:13:04;;;;;;;46.80;34.25;;;0.90;98.30;;;;;;4181243;28;20233;-79
2021/12/07 09:15:08;;;;;;;43.78;31.83;;;0.90;98.30;;;;;;4185158;28;20217;-79
2021/12/07 09:17:14;;;;;;;53.17;35.53;;;1.00;98.30;;;;;;4185595;28;20210;-79
2021/12/07 09:19:17;;;;;;;49.15;33.13;;;1.00;98.30;;;;;;4186502;28;20209;-79
2021/12/07 09:21:21;;;;;;;48.20;32.47;;;1.00;98.30;;;;;;4193954;28;20206;-78
2021/12/07 09:23:24;;;;;;;46.65;32.05;;;1.00;98.30;;;;;;4193443;28;20226;-78
2021/12/07 09:25:27;;;;;;;49.67;32.22;;;1.00;98.30;;;;;;4190397;28;20220;-78
2021/12/07 09:27:31;;;;;;;45.28;33.40;;;1.00;98.30;;;;;;4191446;28;20240;-78
2021/12/07 09:29:39;;;;;;;46.78;32.65;;;1.00;98.30;;;;;;4183318;28;20302;-77
2021/12/07 09:31:43;;;;;;;43.47;32.22;;;1.00;98.30;;;;;;4183593;28;20253;-78
2021/12/07 09:33:46;;;;;;;47.78;33.08;;;1.00;98.30;;;;;;4184851;28;20253;-78
2021/12/07 09:35:49;;;;;;;47.83;31.90;;;1.10;98.30;;;;;;4189598;28;20206;-78
2021/12/07 09:37:54;;;;;;;48.75;31.50;;;1.10;98.30;;;;;;4183599;28;20206;-78
2021/12/07 09:39:57;;;;;;;46.75;32.15;;;1.10;98.30;;;;;;4183047;28;20202;-78
2021/12/07 09:42:00;;;;;;;46.40;32.78;;;1.10;98.30;;;;;;4185876;28;20213;-78
2021/12/07 09:44:06;;;;;;;44.75;32.75;;;1.10;98.30;;;;;;4182724;28;20677;-78
2021/12/07 09:46:10;;;;;;;47.97;30.35;;;1.10;98.30;;;;;;4186281;28;20206;-78
2021/12/07 09:48:14;;;;;;;48.17;32.50;;;1.10;98.30;;;;;;4182802;28;20546;-78
2021/12/07 09:50:20;;;;;;;46.60;31.98;;;1.00;98.30;;;;;;4183526;28;20234;-78
2021/12/07 09:52:24;;;;;;;44.58;30.55;;;1.10;98.30;;;;;;4182580;28;20230;-78
2021/12/07 09:54:27;;;;;;;48.30;32.45;;;1.10;98.30;;;;;;4182658;28;20220;-77
2021/12/07 09:56:30;;;;;;;44.78;30.35;;;1.10;98.30;;;;;;4182596;28;20233;-78
2021/12/07 09:58:33;;;;;;;47.90;33.42;;;1.10;98.30;;;;;;4177025;28;20202;-77
2021/12/07 10:00:39;;;;;;;45.75;30.70;;;1.10;98.30;;;;;;4175069;28;20214;-78
2021/12/07 10:02:43;;;;;;;48.58;32.47;;;1.10;98.30;;;;;;4182839;28;20230;-78
2021/12/07 10:04:47;;;;;;;46.80;32.80;;;1.10;98.30;;;;;;4182226;28;20210;-78
2021/12/07 10:06:50;;;;;;;46.83;32.55;;;1.10;98.30;;;;;;4182447;28;20263;-77
2021/12/07 10:08:53;;;;;;;44.35;30.55;;;1.10;98.30;;;;;;4182374;28;20206;-78
2021/12/07 10:10:58;;;;;;;42.75;30.02;;;1.10;98.30;;;;;;4187588;28;20685;-78
2021/12/07 10:13:01;;;;;;;44.00;31.60;;;1.10;98.30;;;;;;4182575;28;20600;-77
2021/12/07 10:15:07;;;;;;;45.70;31.85;;;1.10;98.30;;;;;;4182069;28;20210;-78
2021/12/07 10:17:11;;;;;;;49.50;32.30;;;1.20;98.30;;;;;;4183193;28;20735;-78
2021/12/07 10:19:27;;;;;;;42.35;29.75;;;1.20;98.30;;;;;;4182972;28;20219;-78
2021/12/07 10:21:38;;;;;;;43.30;31.75;;;1.20;98.30;;;;;;4183307;28;20206;-78
2021/12/07 10:23:43;;;;;;;49.90;33.42;;;1.30;98.30;;;;;;4171817;28;20237;-77
2021/12/07 10:25:51;;;;;;;46.55;31.60;;;1.30;98.30;;;;;;4184809;28;20206;-78
2021/12/07 10:27:55;;;;;;;45.28;29.45;;;1.30;98.30;;;;;;4181717;28;20700;-77
2021/12/07 10:29:58;;;;;;;44.25;32.30;;;1.30;98.30;;;;;;4181816;28;20292;-77
2021/12/07 10:32:05;;;;;;;43.90;30.48;;;1.30;98.30;;;;;;4181667;28;20210;-78
2021/12/07 10:34:14;;;;;;;46.72;30.75;;;1.30;98.30;;;;;;4186615;28;20222;-78
2021/12/07 10:36:21;;;;;;;43.63;29.02;;;1.30;98.30;;;;;;4182081;28;20715;-79
2021/12/07 10:38:24;;;;;;;44.75;30.83;;;1.40;98.30;;;;;;4181850;28;20212;-78
2021/12/07 10:40:27;;;;;;;41.22;31.00;;;1.30;98.30;;;;;;4182030;28;20209;-78
2021/12/07 10:42:31;;;;;;;45.88;31.48;;;1.30;98.30;;;;;;4181539;28;20564;-78
2021/12/07 10:44:38;;;;;;;41.80;28.67;;;1.40;98.30;;;;;;4179489;28;20298;-78
2021/12/07 10:46:51;;;;;;;39.25;29.35;;;1.40;98.30;;;;;;4182288;28;20669;-78
2021/12/07 10:49:10;;;;;;;39.90;29.90;;;1.30;98.30;;;;;;4181471;28;20241;-78
2021/12/07 10:51:13;;;;;;;40.80;27.77;;;1.40;98.30;;;;;;4181285;28;20237;-78
2021/12/07 10:53:16;;;;;;;41.67;29.50;;;1.40;98.30;;;;;;4181079;28;20238;-77
2021/12/07 10:55:21;;;;;;;45.13;30.70;;;1.40;98.30;;;;;;4181544;28;20612;-78
2021/12/07 10:57:26;;;;;;;39.38;27.48;;;1.40;98.30;;;;;;4181321;28;20218;-78
2021/12/07 10:59:29;;;;;;;39.72;28.23;;;1.50;98.30;;;;;;4183298;28;20657;-78
2021/12/07 11:01:35;;;;;;;43.70;29.77;;;1.40;98.30;;;;;;4182250;28;20571;-78
2021/12/07 11:03:38;;;;;;;42.78;29.33;;;1.60;98.30;;;;;;4173225;28;20234;-78
2021/12/07 11:05:46;;;;;;;40.13;27.85;;;1.60;98.30;;;;;;4181601;28;20210;-78
2021/12/07 11:07:50;;;;;;;43.20;30.50;;;1.50;98.30;;;;;;4180935;28;20218;-78
2021/12/07 11:09:59;;;;;;;42.15;29.58;;;1.50;98.30;;;;;;4183421;28;20213;-78
2021/12/07 11:12:07;;;;;;;41.85;28.85;;;1.50;98.30;;;;;;4184517;28;20284;-78
2021/12/07 11:14:10;;;;;;;41.53;30.08;;;1.50;98.30;;;;;;4184740;28;20207;-78
2021/12/07 11:16:15;;;;;;;40.05;28.98;;;1.60;98.30;;;;;;4188364;28;20217;-78
2021/12/07 11:18:24;;;;;;;46.75;29.65;;;1.60;98.30;;;;;;4186847;28;20209;-78
2021/12/07 11:20:29;;;;;;;43.00;29.65;;;1.50;98.30;;;;;;4184741;28;20236;-77
2021/12/07 11:22:38;;;;;;;40.90;30.17;;;1.60;98.30;;;;;;4184368;28;20230;-77
2021/12/07 11:24:44;;;;;;;44.60;30.27;;;1.70;98.30;;;;;;4177194;28;20566;-78
2021/12/07 11:31:31;;;;;;;38.80;28.85;;;1.70;98.30;;;;;;4184756;28;20589;-78
2021/12/07 11:33:33;;;;;;;40.00;28.98;;;1.70;98.30;;;;;;4183359;28;20592;-78
2021/12/07 11:35:37;;;;;;;40.67;29.88;;;1.70;98.30;;;;;;4175909;28;20210;-78
2021/12/07 11:37:42;;;;;;;44.35;30.55;;;1.70;98.30;;;;;;4184034;28;20275;-78
2021/12/07 11:39:49;;;;;;;41.90;30.70;;;1.70;98.30;;;;;;4183843;28;20210;-78
2021/12/07 11:41:55;;;;;;;41.35;30.40;;;1.70;98.30;;;;;;4179687;28;20310;-78
2021/12/07 11:44:01;;;;;;;44.00;31.17;;;1.80;98.30;;;;;;4187779;28;20234;-78
2021/12/07 11:46:18;;;;;;;40.30;28.88;;;1.80;98.30;;;;;;4184381;28;20304;-78
2021/12/07 11:48:21;;;;;;;42.03;30.55;;;1.70;98.30;;;;;;4184351;28;20300;-78
2021/12/07 11:50:30;;;;;;;42.10;29.45;;;1.70;98.30;;;;;;4183923;28;20264;-78
2021/12/07 11:52:33;;;;;;;44.65;30.25;;;1.70;98.30;;;;;;4184202;28;20749;-77
2021/12/07 11:54:39;;;;;;;43.75;30.08;;;1.70;98.30;;;;;;4175255;28;20213;-78
2021/12/07 11:56:44;;;;;;;41.08;29.42;;;1.80;98.30;;;;;;4183621;28;20218;-78
2021/12/07 11:58:47;;;;;;;46.78;31.08;;;1.70;98.30;;;;;;4181543;28;20224;-79
2021/12/07 12:01:10;;;;;;;42.60;28.30;;;1.80;98.30;;;;;;4183828;28;20213;-77
2021/12/07 12:03:15;;;;;;;43.78;29.45;;;1.70;98.30;;;;;;4183267;28;20566;-78
2021/12/07 12:05:18;;;;;;;44.83;31.13;;;1.70;98.30;;;;;;4183841;28;20225;-79